Time;durP1;ratioP1;P1;durP2;ratioP2;P2;SDS_P1;SDS_P2;PMS_P1;PMS_P2;Temp;Humidity;BMP_temperature;BMP_pressure;BME280_temperature;BME280_humidity;BME280_pressure;Samples;Min_cycle;Max_cycle;Signal;HPM_P1;HPM_P2
2023/03/15 00:00:41;;;;;;;3.63;1.48;;;13.70;93.50;;;;;;6245582;23;20299;-75
2023/03/15 00:03:07;;;;;;;1.95;1.58;;;13.80;93.70;;;;;;6245552;23;20027;-75
2023/03/15 00:05:33;;;;;;;2.35;1.30;;;13.80;93.60;;;;;;6246168;23;20003;-75
2023/03/15 00:07:58;;;;;;;2.97;1.08;;;13.80;93.40;;;;;;6246745;23;20023;-75
2023/03/15 00:10:24;;;;;;;2.05;1.30;;;13.80;93.10;;;;;;6219244;23;20030;-74
2023/03/15 00:12:50;;;;;;;2.47;1.20;;;13.80;93.10;;;;;;6246553;23;20070;-75
2023/03/15 00:15:16;;;;;;;2.47;1.30;;;13.80;93.00;;;;;;6246352;23;20004;-74
2023/03/15 00:17:43;;;;;;;3.58;1.70;;;13.80;93.00;;;;;;6246598;23;20073;-74
2023/03/15 00:20:10;;;;;;;2.20;1.23;;;13.80;93.00;;;;;;6246550;23;20024;-75
2023/03/15 00:22:35;;;;;;;1.73;1.17;;;13.80;92.90;;;;;;6219602;23;20427;-75
2023/03/15 00:25:01;;;;;;;2.22;1.45;;;13.80;92.90;;;;;;6246498;23;19996;-75
2023/03/15 00:27:27;;;;;;;1.83;1.20;;;13.80;92.80;;;;;;6246358;23;20079;-76
2023/03/15 00:29:52;;;;;;;1.30;1.10;;;13.80;92.60;;;;;;6246584;23;19996;-76
2023/03/15 00:32:18;;;;;;;1.83;1.15;;;13.80;92.50;;;;;;6246194;23;20407;-76
2023/03/15 00:34:47;;;;;;;2.10;1.10;;;13.80;92.30;;;;;;6219989;23;20008;-76
2023/03/15 00:37:15;;;;;;;2.93;1.37;;;13.80;92.50;;;;;;6245902;23;20008;-76
2023/03/15 00:39:44;;;;;;;2.47;1.27;;;13.80;92.50;;;;;;6245664;23;20079;-75
2023/03/15 00:42:16;;;;;;;2.78;1.58;;;13.90;92.40;;;;;;6246361;23;20538;-75
2023/03/15 00:44:43;;;;;;;2.97;1.40;;;13.90;92.30;;;;;;6245990;23;20416;-75
2023/03/15 00:47:13;;;;;;;1.45;1.10;;;13.90;92.30;;;;;;6219158;23;20426;-75
2023/03/15 00:49:40;;;;;;;1.67;1.10;;;13.90;92.30;;;;;;6246160;23;19997;-75
2023/03/15 00:52:06;;;;;;;1.08;0.98;;;14.00;92.30;;;;;;6246600;23;20051;-75
2023/03/15 00:54:32;;;;;;;1.55;1.25;;;13.90;92.20;;;;;;6218950;23;20381;-75
2023/03/15 00:57:01;;;;;;;2.20;1.30;;;13.90;92.10;;;;;;6246752;23;20004;-75
2023/03/15 00:59:33;;;;;;;1.95;1.30;;;14.00;92.10;;;;;;6246275;23;20075;-75
2023/03/15 01:02:04;;;;;;;2.05;1.67;;;14.00;92.10;;;;;;6245845;23;20000;-75
2023/03/15 01:04:30;;;;;;;;;;;14.00;92.00;;;;;;6245921;23;20015;-75
2023/03/15 01:06:56;;;;;;;2.42;1.30;;;14.00;91.70;;;;;;6245958;23;19906;-74
2023/03/15 01:09:22;;;;;;;3.70;1.40;;;13.90;91.80;;;;;;6245456;23;20390;-75
2023/03/15 01:11:48;;;;;;;2.45;1.80;;;13.80;91.90;;;;;;6245697;23;20079;-74
2023/03/15 01:14:14;;;;;;;2.20;1.50;;;13.80;92.10;;;;;;6244479;23;20008;-76
2023/03/15 01:16:40;;;;;;;3.40;2.33;;;13.80;92.20;;;;;;6244899;23;20020;-76
2023/03/15 01:19:05;;;;;;;3.00;2.53;;;13.80;92.20;;;;;;6246049;23;20004;-75
2023/03/15 01:21:31;;;;;;;4.28;3.00;;;13.70;92.40;;;;;;6244591;23;20082;-75
2023/03/15 01:23:56;;;;;;;6.45;3.75;;;13.70;92.70;;;;;;6244729;23;20323;-76
2023/03/15 01:26:22;;;;;;;4.43;3.42;;;13.70;92.80;;;;;;6245628;23;20407;-76
2023/03/15 01:28:48;;;;;;;4.85;3.60;;;13.60;92.90;;;;;;6245103;23;20410;-75
2023/03/15 01:31:34;;;;;;;5.95;3.50;;;13.50;93.10;;;;;;6245582;23;20004;-76
2023/03/15 01:34:00;;;;;;;5.10;3.30;;;13.50;93.10;;;;;;6218323;23;20415;-75
2023/03/15 01:36:26;;;;;;;5.80;4.43;;;13.40;93.40;;;;;;6245541;23;20095;-76
2023/03/15 01:38:52;;;;;;;4.47;3.55;;;13.40;93.50;;;;;;6244972;23;20670;-76
2023/03/15 01:41:18;;;;;;;7.25;4.70;;;13.40;93.60;;;;;;6241269;23;20083;-76
2023/03/15 01:43:47;;;;;;;5.60;3.80;;;13.30;93.70;;;;;;6244575;23;20007;-76
2023/03/15 01:46:18;;;;;;;6.70;4.35;;;13.30;93.70;;;;;;6242135;23;20000;-75
2023/03/15 01:49:05;;;;;;;7.75;4.32;;;13.30;93.70;;;;;;6242459;23;20004;-76
2023/03/15 01:51:31;;;;;;;6.45;4.82;;;13.40;93.70;;;;;;6245336;23;20075;-75
2023/03/15 01:54:09;;;;;;;6.07;4.00;;;13.30;93.90;;;;;;6245513;23;20032;-76
2023/03/15 01:56:37;;;;;;;5.90;4.28;;;13.30;93.80;;;;;;6245751;23;20084;-76
2023/03/15 01:59:05;;;;;;;5.38;3.97;;;13.30;94.00;;;;;;6245491;23;20039;-76
2023/03/15 02:01:34;;;;;;;8.60;4.82;;;13.30;93.80;;;;;;6245168;23;20063;-75
2023/03/15 02:04:08;;;;;;;7.55;4.25;;;13.30;93.90;;;;;;6245591;23;20004;-75
2023/03/15 02:06:34;;;;;;;4.85;3.72;;;13.30;93.90;;;;;;6245598;23;20087;-74
2023/03/15 02:09:13;;;;;;;8.05;4.75;;;13.30;94.10;;;;;;6245691;23;20003;-75
2023/03/15 02:11:40;;;;;;;4.47;3.85;;;13.20;94.10;;;;;;6219766;23;20008;-75
2023/03/15 02:14:08;;;;;;;7.55;4.40;;;13.30;94.00;;;;;;6245509;23;20012;-75
2023/03/15 02:16:34;;;;;;;5.85;4.63;;;13.30;94.00;;;;;;6245456;23;20087;-75
2023/03/15 02:19:00;;;;;;;5.85;3.85;;;13.30;94.00;;;;;;6245047;23;20031;-76
2023/03/15 02:21:37;;;;;;;4.78;3.97;;;13.40;94.00;;;;;;6245803;23;20007;-76
2023/03/15 02:24:25;;;;;;;6.53;3.85;;;13.40;93.90;;;;;;6218612;23;20086;-76
2023/03/15 02:26:55;;;;;;;5.82;3.90;;;13.40;93.80;;;;;;6244514;23;20288;-77
2023/03/15 02:29:24;;;;;;;4.85;3.83;;;13.40;93.80;;;;;;6243741;23;20004;-76
2023/03/15 02:31:51;;;;;;;5.50;3.75;;;13.40;93.80;;;;;;6217828;23;19996;-77
2023/03/15 02:34:17;;;;;;;4.78;3.65;;;13.40;93.80;;;;;;6246392;23;20004;-76
2023/03/15 02:36:42;;;;;;;6.65;4.18;;;13.50;93.80;;;;;;6247210;23;20010;-77
2023/03/15 02:39:19;;;;;;;5.55;3.58;;;13.50;93.70;;;;;;6247455;23;19999;-77
2023/03/15 02:41:57;;;;;;;6.25;3.92;;;13.50;93.70;;;;;;6246806;23;20027;-77
2023/03/15 02:44:29;;;;;;;7.07;4.25;;;13.50;93.70;;;;;;6246990;23;20032;-76
2023/03/15 02:47:00;;;;;;;7.47;4.10;;;13.40;93.70;;;;;;6247664;23;20004;-76
2023/03/15 02:49:28;;;;;;;10.20;4.68;;;13.40;93.70;;;;;;6245374;23;20000;-76
2023/03/15 02:51:54;;;;;;;6.43;4.55;;;13.40;93.70;;;;;;6242493;23;19996;-75
2023/03/15 02:54:20;;;;;;;7.55;4.50;;;13.40;93.70;;;;;;6245651;23;20012;-75
2023/03/15 02:56:45;;;;;;;6.53;4.15;;;13.30;93.70;;;;;;6247129;23;20012;-75
2023/03/15 02:59:11;;;;;;;6.60;4.63;;;13.30;93.80;;;;;;6247465;23;20306;-76
2023/03/15 03:01:37;;;;;;;5.60;4.40;;;13.30;93.70;;;;;;6247014;23;20476;-76
2023/03/15 03:04:03;;;;;;;5.97;4.60;;;13.30;93.80;;;;;;6246918;23;20042;-76
2023/03/15 03:06:29;;;;;;;7.47;4.40;;;13.30;93.80;;;;;;6246515;23;20000;-75
2023/03/15 03:08:55;;;;;;;5.90;4.70;;;13.20;93.80;;;;;;6247302;23;20001;-75
2023/03/15 03:11:20;;;;;;;5.70;4.53;;;13.20;93.70;;;;;;6247359;23;20050;-75
2023/03/15 03:13:46;;;;;;;5.93;4.38;;;13.20;93.80;;;;;;6220255;23;20012;-75
2023/03/15 03:16:12;;;;;;;5.22;4.43;;;13.30;93.80;;;;;;6247497;23;20004;-75
2023/03/15 03:18:39;;;;;;;9.20;4.90;;;13.30;93.70;;;;;;6246654;23;20354;-76
2023/03/15 03:21:06;;;;;;;5.82;4.28;;;13.20;93.70;;;;;;6247287;23;20001;-76
2023/03/15 03:23:33;;;;;;;8.35;5.32;;;13.20;93.70;;;;;;6247144;23;20032;-76
2023/03/15 03:26:00;;;;;;;5.85;4.53;;;13.30;93.70;;;;;;6246881;23;20007;-75
2023/03/15 03:28:28;;;;;;;6.85;4.65;;;13.20;93.70;;;;;;6244737;23;20058;-75
2023/03/15 03:30:55;;;;;;;9.23;4.93;;;13.20;93.80;;;;;;6243494;23;20000;-76
2023/03/15 03:33:21;;;;;;;8.55;4.93;;;13.20;93.70;;;;;;6245719;23;20008;-76
2023/03/15 03:35:48;;;;;;;6.25;4.88;;;13.20;93.70;;;;;;6246125;23;20004;-75
2023/03/15 03:38:14;;;;;;;7.63;4.60;;;13.20;93.70;;;;;;6243262;23;20288;-75
2023/03/15 03:40:40;;;;;;;8.88;4.75;;;13.20;93.70;;;;;;6246028;23;20008;-76
2023/03/15 03:43:07;;;;;;;8.43;4.75;;;13.20;93.70;;;;;;6242736;23;20011;-76
2023/03/15 03:45:33;;;;;;;6.50;4.82;;;13.20;93.70;;;;;;6242662;23;20312;-76
2023/03/15 03:47:59;;;;;;;6.90;5.00;;;13.20;93.70;;;;;;6244009;23;20035;-76
2023/03/15 03:50:25;;;;;;;8.10;4.82;;;13.20;93.70;;;;;;6218433;23;20114;-76
2023/03/15 03:52:51;;;;;;;6.32;4.72;;;13.20;93.70;;;;;;6216628;23;20154;-76
2023/03/15 03:55:16;;;;;;;9.23;5.82;;;13.20;93.70;;;;;;6241499;23;20418;-76
2023/03/15 03:57:42;;;;;;;6.13;4.75;;;13.20;93.90;;;;;;6242232;23;20430;-76
2023/03/15 04:00:13;;;;;;;6.88;4.65;;;13.30;93.90;;;;;;6215573;23;20446;-76
2023/03/15 04:02:41;;;;;;;8.02;5.13;;;13.20;93.70;;;;;;6242077;23;20000;-76
2023/03/15 04:05:10;;;;;;;7.28;4.95;;;13.30;93.70;;;;;;6242273;23;20050;-76
2023/03/15 04:07:35;;;;;;;6.38;5.47;;;13.30;93.60;;;;;;6242488;23;20620;-76
2023/03/15 04:10:01;;;;;;;9.15;5.47;;;13.30;93.60;;;;;;6246100;23;19997;-75
2023/03/15 04:12:27;;;;;;;7.15;5.30;;;13.30;93.60;;;;;;6246270;23;20012;-76
2023/03/15 04:14:53;;;;;;;8.43;6.00;;;13.30;93.70;;;;;;6246354;23;19996;-75
2023/03/15 04:17:19;;;;;;;9.05;5.15;;;13.20;93.70;;;;;;6246542;23;19996;-75
2023/03/15 04:19:45;;;;;;;7.55;5.43;;;13.20;93.70;;;;;;6245832;23;20107;-76
2023/03/15 04:22:14;;;;;;;7.97;5.03;;;13.20;93.70;;;;;;6246112;23;20321;-76
2023/03/15 04:24:42;;;;;;;8.52;5.18;;;13.20;93.80;;;;;;6246026;23;20069;-76
2023/03/15 04:27:13;;;;;;;8.55;5.15;;;13.20;93.70;;;;;;6245967;23;19996;-76
2023/03/15 04:29:40;;;;;;;6.38;4.65;;;13.30;93.70;;;;;;6246211;23;20057;-75
2023/03/15 04:32:07;;;;;;;8.80;5.05;;;13.20;93.60;;;;;;6245403;23;20446;-76
2023/03/15 04:34:32;;;;;;;6.45;5.22;;;13.20;93.60;;;;;;6246104;23;20010;-76
2023/03/15 04:36:58;;;;;;;10.02;5.88;;;13.20;93.70;;;;;;6245851;23;20071;-76
2023/03/15 04:39:23;;;;;;;8.20;5.65;;;13.20;93.70;;;;;;6246421;23;20050;-75
2023/03/15 04:41:49;;;;;;;12.13;6.20;;;13.20;93.80;;;;;;6245079;23;20320;-76
2023/03/15 04:44:15;;;;;;;9.77;6.03;;;13.20;93.80;;;;;;6244520;23;20037;-76
2023/03/15 04:46:42;;;;;;;8.15;5.70;;;13.10;93.80;;;;;;6243982;23;20095;-75
2023/03/15 04:49:08;;;;;;;10.75;6.25;;;13.20;93.90;;;;;;6243946;23;20000;-75
2023/03/15 04:51:34;;;;;;;9.23;6.13;;;13.10;93.80;;;;;;6242403;23;20031;-75
2023/03/15 04:54:00;;;;;;;9.35;6.28;;;13.20;93.80;;;;;;6242706;23;20925;-76
2023/03/15 04:56:27;;;;;;;10.50;5.90;;;13.20;93.70;;;;;;6214687;23;20389;-75
2023/03/15 04:58:53;;;;;;;9.63;6.28;;;13.20;93.70;;;;;;6241941;23;20000;-76
2023/03/15 05:01:26;;;;;;;8.57;6.20;;;13.20;93.70;;;;;;6242138;23;20004;-78
2023/03/15 05:03:52;;;;;;;9.07;7.00;;;13.10;93.70;;;;;;6241847;23;20036;-77
2023/03/15 05:06:18;;;;;;;9.82;6.40;;;13.10;93.70;;;;;;6242017;23;20475;-77
2023/03/15 05:08:44;;;;;;;9.13;6.30;;;13.10;93.80;;;;;;6241452;23;20000;-76
2023/03/15 05:11:10;;;;;;;11.18;6.63;;;13.10;93.80;;;;;;6242195;23;20871;-77
2023/03/15 05:13:35;;;;;;;9.50;6.55;;;13.00;93.80;;;;;;6241273;23;20012;-76
2023/03/15 05:16:01;;;;;;;9.02;6.55;;;13.00;93.80;;;;;;6241791;23;20107;-77
2023/03/15 05:18:27;;;;;;;8.93;6.55;;;13.10;93.90;;;;;;6244889;23;19999;-80
2023/03/15 05:20:55;;;;;;;8.82;6.30;;;13.10;93.80;;;;;;6215177;23;20082;-79
2023/03/15 05:23:24;;;;;;;8.88;7.03;;;13.10;93.80;;;;;;6243639;23;20062;-76
2023/03/15 05:25:54;;;;;;;9.00;6.50;;;13.10;93.80;;;;;;6244214;23;20000;-75
2023/03/15 05:28:23;;;;;;;10.05;5.95;;;13.10;93.80;;;;;;6242031;23;20310;-75
2023/03/15 05:30:53;;;;;;;7.63;5.47;;;13.20;93.80;;;;;;6241598;23;20019;-75
2023/03/15 05:33:20;;;;;;;8.55;6.47;;;13.20;93.80;;;;;;6241568;23;20083;-75
2023/03/15 05:35:46;;;;;;;6.78;5.80;;;13.20;93.80;;;;;;6242161;23;20349;-76
2023/03/15 05:38:13;;;;;;;8.57;6.40;;;13.20;93.70;;;;;;6241555;23;20008;-75
2023/03/15 05:40:48;;;;;;;9.90;6.35;;;13.20;93.70;;;;;;6242796;23;20442;-77
2023/03/15 05:43:13;;;;;;;9.63;6.10;;;13.30;93.70;;;;;;6243791;23;20083;-77
2023/03/15 05:45:40;;;;;;;7.07;5.90;;;13.30;93.70;;;;;;6245170;23;20023;-76
2023/03/15 05:48:05;;;;;;;7.65;5.88;;;13.30;93.70;;;;;;6245101;23;20000;-77
2023/03/15 05:50:31;;;;;;;7.57;5.47;;;13.30;93.60;;;;;;6244656;23;20053;-77
2023/03/15 05:52:57;;;;;;;8.32;6.00;;;13.40;93.60;;;;;;6218513;23;20422;-77
2023/03/15 05:55:23;;;;;;;9.30;5.35;;;13.30;93.50;;;;;;6245536;23;20004;-78
2023/03/15 05:57:49;;;;;;;7.72;5.60;;;13.30;93.50;;;;;;6244560;23;20000;-78
2023/03/15 06:00:15;;;;;;;8.70;6.07;;;13.40;93.50;;;;;;6244525;23;20004;-77
2023/03/15 06:02:43;;;;;;;7.82;5.63;;;13.40;93.50;;;;;;6243567;23;20454;-78
2023/03/15 06:05:09;;;;;;;7.72;5.43;;;13.40;93.50;;;;;;6244422;23;20000;-78
2023/03/15 06:07:35;;;;;;;6.78;4.97;;;13.30;93.50;;;;;;6244675;23;20062;-78
2023/03/15 06:10:00;;;;;;;8.35;5.93;;;13.30;93.60;;;;;;6244754;23;20000;-78
2023/03/15 06:12:26;;;;;;;12.60;6.05;;;13.30;93.60;;;;;;6244634;23;20004;-78
2023/03/15 06:14:54;;;;;;;10.52;6.40;;;13.30;93.60;;;;;;6246176;23;20000;-79
2023/03/15 06:17:19;;;;;;;9.02;6.20;;;13.40;93.60;;;;;;6217247;23;20008;-83
2023/03/15 06:19:45;;;;;;;8.48;5.25;;;13.40;93.50;;;;;;6218178;23;20011;-77
2023/03/15 06:22:11;;;;;;;8.00;5.97;;;13.40;93.50;;;;;;6244169;23;20451;-77
2023/03/15 06:24:43;;;;;;;10.38;5.95;;;13.40;93.50;;;;;;6244722;23;20016;-84
2023/03/15 06:27:09;;;;;;;8.05;5.88;;;13.50;93.40;;;;;;6218645;23;20005;-83
2023/03/15 06:29:34;;;;;;;8.32;5.38;;;13.50;93.40;;;;;;6246664;23;20640;-77
2023/03/15 06:32:00;;;;;;;8.32;5.32;;;13.50;93.40;;;;;;6243698;23;20004;-77
2023/03/15 06:34:25;;;;;;;8.25;5.75;;;13.60;93.30;;;;;;6242360;23;20013;-77
2023/03/15 06:36:51;;;;;;;9.38;4.60;;;13.60;93.10;;;;;;6243486;23;20042;-77
2023/03/15 06:39:17;;;;;;;10.25;5.28;;;13.60;92.80;;;;;;6243219;23;20206;-76
2023/03/15 06:41:43;;;;;;;6.65;4.38;;;13.60;92.80;;;;;;6244648;23;20004;-76
2023/03/15 06:44:09;;;;;;;9.80;5.82;;;13.60;92.70;;;;;;6218031;23;20443;-76
2023/03/15 06:46:35;;;;;;;6.72;4.57;;;13.70;92.60;;;;;;6245378;23;20058;-77
2023/03/15 06:49:02;;;;;;;6.45;4.60;;;13.70;92.60;;;;;;6216618;23;20091;-77
2023/03/15 06:51:28;;;;;;;7.47;4.45;;;13.80;92.50;;;;;;6218472;23;20011;-76
2023/03/15 06:53:54;;;;;;;7.80;3.80;;;13.80;92.30;;;;;;6245327;23;20004;-76
2023/03/15 06:56:19;;;;;;;5.70;3.83;;;13.80;92.10;;;;;;6244267;23;20011;-77
2023/03/15 06:58:45;;;;;;;9.55;3.60;;;13.80;91.80;;;;;;6217104;23;20389;-78
2023/03/15 07:01:12;;;;;;;6.70;4.00;;;13.90;92.40;;;;;;6244745;23;20075;-78
2023/03/15 07:03:39;;;;;;;8.73;4.38;;;14.00;92.10;;;;;;6245131;23;20098;-77
2023/03/15 07:06:04;;;;;;;11.60;5.03;;;14.00;91.80;;;;;;6243659;23;20429;-77
2023/03/15 07:08:30;;;;;;;6.75;4.72;;;14.10;91.70;;;;;;6243740;23;19996;-77
2023/03/15 07:10:56;;;;;;;10.55;6.28;;;14.10;91.70;;;;;;6245279;23;20007;-82
2023/03/15 07:13:22;;;;;;;12.75;7.75;;;14.10;91.70;;;;;;6244752;23;20307;-82
2023/03/15 07:15:55;;;;;;;18.70;9.48;;;14.20;91.70;;;;;;6245196;23;20058;-83
2023/03/15 07:18:21;;;;;;;13.30;9.52;;;14.20;91.60;;;;;;6245915;23;20311;-83
2023/03/15 07:20:54;;;;;;;14.00;9.95;;;14.20;91.60;;;;;;6246217;23;20054;-82
2023/03/15 07:23:19;;;;;;;12.45;9.27;;;14.20;91.80;;;;;;6219717;23;20406;-82
2023/03/15 07:25:47;;;;;;;12.98;8.35;;;14.20;91.70;;;;;;6245853;23;20034;-84
2023/03/15 07:28:13;;;;;;;9.82;6.82;;;14.20;91.80;;;;;;6245231;23;20007;-83
2023/03/15 07:30:39;;;;;;;8.15;6.03;;;14.20;91.90;;;;;;6246928;23;20000;-82
2023/03/15 07:33:04;;;;;;;12.05;6.15;;;14.30;92.00;;;;;;6246836;23;20008;-82
2023/03/15 07:35:30;;;;;;;8.75;4.90;;;14.30;92.10;;;;;;6247030;23;20000;-81
2023/03/15 07:37:56;;;;;;;11.75;5.50;;;14.30;92.10;;;;;;6231653;23;20434;-78
2023/03/15 07:40:22;;;;;;;6.93;3.70;;;14.30;92.10;;;;;;6241452;23;20422;-78
2023/03/15 07:42:48;;;;;;;4.15;2.15;;;14.20;92.00;;;;;;6245667;23;20334;-81
2023/03/15 07:45:13;;;;;;;1.80;1.30;;;14.20;91.60;;;;;;6219237;23;20087;-80
2023/03/15 07:47:39;;;;;;;6.85;2.00;;;14.20;91.20;;;;;;6246511;23;20000;-80
2023/03/15 07:50:06;;;;;;;4.97;1.40;;;14.20;91.40;;;;;;6246039;23;20334;-81
2023/03/15 07:52:32;;;;;;;2.90;0.95;;;14.20;91.40;;;;;;6219636;23;20381;-82
2023/03/15 07:54:58;;;;;;;2.10;0.75;;;14.30;91.10;;;;;;6245503;23;20004;-82
2023/03/15 07:57:23;;;;;;;3.40;1.08;;;14.20;90.20;;;;;;6246064;23;20007;-82
2023/03/15 07:59:51;;;;;;;3.40;0.75;;;14.20;90.30;;;;;;6244227;23;20004;-81
2023/03/15 08:02:17;;;;;;;3.60;0.80;;;14.10;89.50;;;;;;6244453;23;20007;-81
2023/03/15 08:04:43;;;;;;;2.78;0.75;;;14.00;86.90;;;;;;6245411;23;20004;-81
2023/03/15 08:07:09;;;;;;;4.40;0.80;;;13.90;87.80;;;;;;6245559;23;20311;-79
2023/03/15 08:09:35;;;;;;;2.15;0.60;;;13.70;87.40;;;;;;6246208;23;20000;-78
2023/03/15 08:12:01;;;;;;;4.47;0.80;;;13.60;89.00;;;;;;6245532;23;20004;-78
2023/03/15 08:14:28;;;;;;;5.97;1.17;;;13.60;89.70;;;;;;6244868;23;20037;-78
2023/03/15 08:16:53;;;;;;;5.22;1.52;;;13.60;90.10;;;;;;6240338;23;20008;-78
2023/03/15 08:19:21;;;;;;;1.65;0.60;;;13.50;90.10;;;;;;6243677;23;20033;-79
2023/03/15 08:21:46;;;;;;;2.47;0.68;;;13.40;86.70;;;;;;6243580;23;20004;-80
2023/03/15 08:24:13;;;;;;;1.17;0.60;;;13.20;85.90;;;;;;6243770;23;20318;-88
2023/03/15 08:26:38;;;;;;;1.52;0.40;;;13.10;87.30;;;;;;6242081;23;20022;-78
2023/03/15 08:29:04;;;;;;;0.70;0.40;;;13.00;86.30;;;;;;6243862;23;20422;-77
2023/03/15 08:31:30;;;;;;;2.15;0.55;;;13.00;85.30;;;;;;6243611;23;20370;-79
2023/03/15 08:33:56;;;;;;;1.65;0.63;;;12.90;85.10;;;;;;6246151;23;20047;-79
2023/03/15 08:36:22;;;;;;;1.77;0.65;;;12.90;85.30;;;;;;6246031;23;20000;-77
2023/03/15 08:38:48;;;;;;;1.60;0.50;;;12.90;85.30;;;;;;6245444;23;20008;-79
2023/03/15 08:41:14;;;;;;;0.75;0.38;;;12.90;85.60;;;;;;6245513;23;20433;-84
2023/03/15 08:43:40;;;;;;;4.82;0.57;;;12.90;85.80;;;;;;6216619;23;20004;-83
2023/03/15 08:46:05;;;;;;;2.60;0.60;;;12.90;85.80;;;;;;6246247;23;20054;-79
2023/03/15 08:48:31;;;;;;;2.25;0.70;;;12.90;85.80;;;;;;6245933;23;20075;-79
2023/03/15 08:51:05;;;;;;;0.68;0.40;;;12.90;86.50;;;;;;6244955;23;19996;-79
2023/03/15 08:53:31;;;;;;;2.00;0.70;;;12.80;86.40;;;;;;6217695;23;20004;-79
2023/03/15 08:55:58;;;;;;;0.30;0.20;;;12.90;86.60;;;;;;6244883;23;20010;-79
2023/03/15 08:58:24;;;;;;;0.45;0.30;;;12.90;86.50;;;;;;6218335;23;20004;-79
2023/03/15 09:00:50;;;;;;;2.05;0.30;;;12.90;86.60;;;;;;6244948;23;20015;-79
2023/03/15 09:03:18;;;;;;;1.50;0.45;;;12.80;85.50;;;;;;6242161;23;20004;-83
2023/03/15 09:05:44;;;;;;;0.88;0.15;;;12.80;85.80;;;;;;6244086;23;20000;-84
2023/03/15 09:08:10;;;;;;;1.90;0.30;;;12.80;85.60;;;;;;6245064;23;20035;-84
2023/03/15 09:10:35;;;;;;;0.63;0.22;;;12.80;85.00;;;;;;6218278;23;20009;-82
2023/03/15 09:13:01;;;;;;;2.72;0.40;;;12.70;84.60;;;;;;6245443;23;20018;-82
2023/03/15 09:15:27;;;;;;;0.85;0.40;;;;;;;;;;6217243;23;20495;-82
2023/03/15 09:17:53;;;;;;;1.48;0.40;;;12.60;83.20;;;;;;6245124;23;20434;-81
2023/03/15 09:20:20;;;;;;;0.60;0.30;;;12.70;82.50;;;;;;6244477;23;20014;-82
2023/03/15 09:22:52;;;;;;;0.70;0.20;;;12.70;80.60;;;;;;6244853;23;20004;-81
2023/03/15 09:25:18;;;;;;;0.45;0.10;;;12.50;80.20;;;;;;6245177;23;20618;-83
2023/03/15 09:27:45;;;;;;;0.20;0.20;;;12.50;79.30;;;;;;6244942;23;20003;-83
2023/03/15 09:30:11;;;;;;;0.30;0.20;;;12.50;80.30;;;;;;6244930;23;20418;-82
2023/03/15 09:32:37;;;;;;;1.25;0.20;;;12.40;80.10;;;;;;6218243;23;20007;-83
2023/03/15 09:35:04;;;;;;;0.98;0.30;;;12.40;79.50;;;;;;6244837;23;19996;-83
2023/03/15 09:37:29;;;;;;;1.65;0.15;;;12.40;79.70;;;;;;6245075;23;20007;-83
2023/03/15 09:39:55;;;;;;;1.52;0.22;;;12.40;79.00;;;;;;6244893;23;20000;-83
2023/03/15 09:42:39;;;;;;;0.63;0.30;;;12.30;79.60;;;;;;6245057;23;20315;-82
2023/03/15 09:45:40;;;;;;;0.57;0.20;;;12.30;80.10;;;;;;6245154;23;20071;-83
2023/03/15 09:48:17;;;;;;;1.25;0.30;;;12.20;79.60;;;;;;6244888;23;20466;-83
2023/03/15 09:51:14;;;;;;;0.77;0.20;;;12.20;79.90;;;;;;6244724;23;20070;-83
2023/03/15 09:54:00;;;;;;;0.75;0.20;;;12.10;80.20;;;;;;6243220;23;20438;-79
2023/03/15 09:56:36;;;;;;;0.10;0.10;;;12.10;78.10;;;;;;6241877;23;20008;-80
2023/03/15 09:59:04;;;;;;;1.55;0.40;;;12.10;79.10;;;;;;6245132;23;20007;-79
2023/03/15 10:01:42;;;;;;;0.85;0.40;;;12.10;79.20;;;;;;6243425;23;20008;-79
2023/03/15 10:04:30;;;;;;;0.50;0.40;;;12.10;79.70;;;;;;6244356;23;20004;-79
2023/03/15 10:07:01;;;;;;;0.50;0.30;;;12.00;76.30;;;;;;6218224;23;20697;-79
2023/03/15 10:09:33;;;;;;;0.52;0.40;;;12.00;77.20;;;;;;6245328;23;20000;-77
2023/03/15 10:12:04;;;;;;;0.50;0.35;;;12.10;78.70;;;;;;6244364;23;20002;-77
2023/03/15 10:14:35;;;;;;;;;;;12.30;79.00;;;;;;6216877;23;20042;-79
2023/03/15 10:17:12;;;;;;;1.02;0.50;;;12.30;78.70;;;;;;6243867;23;19900;-79
2023/03/15 10:19:57;;;;;;;0.43;0.40;;;12.40;79.80;;;;;;6243209;23;20011;-78
2023/03/15 10:22:35;;;;;;;0.98;0.40;;;12.50;79.40;;;;;;6243517;23;20000;-80
2023/03/15 10:25:05;;;;;;;1.08;0.47;;;12.60;79.90;;;;;;6216787;23;20019;-78
2023/03/15 10:28:04;;;;;;;1.55;0.60;;;12.70;80.30;;;;;;6244672;23;20022;-79
2023/03/15 10:30:32;;;;;;;1.00;0.63;;;12.80;81.10;;;;;;6243337;23;20071;-79
2023/03/15 10:33:27;;;;;;;3.72;0.80;;;12.90;82.60;;;;;;6243984;23;20002;-80
2023/03/15 10:35:53;;;;;;;1.38;0.60;;;13.10;83.30;;;;;;6243873;23;20067;-80
2023/03/15 10:38:21;;;;;;;0.90;0.60;;;13.30;83.10;;;;;;6244631;23;20000;-80
2023/03/15 10:40:52;;;;;;;1.00;0.60;;;13.40;82.50;;;;;;6217783;23;20026;-80
2023/03/15 10:43:54;;;;;;;2.00;0.65;;;13.50;81.50;;;;;;6244949;23;20000;-79
2023/03/15 10:46:22;;;;;;;4.20;1.00;;;13.60;81.40;;;;;;6223734;23;20004;-80
2023/03/15 10:49:10;;;;;;;3.97;1.27;;;13.80;81.50;;;;;;6245115;23;19996;-78
2023/03/15 10:51:47;;;;;;;1.35;0.70;;;13.90;81.40;;;;;;6243340;23;20080;-81
2023/03/15 10:54:22;;;;;;;2.58;0.80;;;14.00;81.10;;;;;;6218319;23;20012;-80
2023/03/15 10:57:04;;;;;;;1.88;0.90;;;14.10;80.20;;;;;;6246514;23;20481;-79
2023/03/15 10:59:34;;;;;;;1.13;0.77;;;14.20;80.50;;;;;;6218647;23;20315;-79
2023/03/15 11:02:06;;;;;;;;;;;14.40;81.10;;;;;;6245619;23;20008;-79
2023/03/15 11:04:33;;;;;;;2.13;0.68;;;14.80;80.40;;;;;;6244997;23;19968;-81
2023/03/15 11:07:01;;;;;;;1.02;0.60;;;15.20;75.20;;;;;;6245281;23;20000;-81
2023/03/15 11:09:38;;;;;;;2.17;0.70;;;15.50;77.40;;;;;;6218292;23;20004;-82
2023/03/15 11:12:06;;;;;;;3.45;1.10;;;15.80;76.00;;;;;;6245259;23;19996;-81
2023/03/15 11:14:35;;;;;;;1.65;0.47;;;15.80;70.00;;;;;;6244846;23;20012;-81
2023/03/15 11:17:04;;;;;;;1.50;0.70;;;15.90;74.70;;;;;;6245108;23;20004;-81
2023/03/15 11:19:32;;;;;;;1.00;0.50;;;16.20;75.20;;;;;;6213321;23;20449;-78
2023/03/15 11:22:00;;;;;;;0.40;0.32;;;16.60;73.70;;;;;;6244110;23;20015;-82
2023/03/15 11:24:29;;;;;;;1.15;0.32;;;16.90;72.20;;;;;;6243519;23;20057;-79
2023/03/15 11:27:01;;;;;;;1.88;0.70;;;17.20;72.20;;;;;;6218308;23;20004;-78
2023/03/15 11:29:37;;;;;;;0.85;0.50;;;17.50;66.00;;;;;;6245718;23;20007;-81
2023/03/15 11:32:14;;;;;;;0.50;0.40;;;17.80;71.20;;;;;;6245457;23;20000;-81
2023/03/15 11:34:58;;;;;;;0.90;0.40;;;18.10;69.90;;;;;;6245786;23;20004;-81
2023/03/15 11:37:31;;;;;;;1.27;0.38;;;18.50;69.40;;;;;;6245907;23;20427;-82
2023/03/15 11:40:08;;;;;;;0.20;0.20;;;18.80;69.00;;;;;;6247033;23;20004;-81
2023/03/15 11:42:47;;;;;;;1.30;0.47;;;19.20;63.10;;;;;;6220088;23;20008;-81
2023/03/15 11:45:28;;;;;;;1.50;0.70;;;19.20;55.70;;;;;;6246773;23;20059;-81
2023/03/15 11:47:57;;;;;;;0.55;0.38;;;20.10;54.50;;;;;;6247137;23;20000;-81
2023/03/15 11:50:22;;;;;;;0.28;0.28;;;21.50;59.60;;;;;;6245881;23;21131;-82
2023/03/15 11:52:52;;;;;;;0.68;0.40;;;23.00;57.20;;;;;;6246357;23;20000;-82
2023/03/15 11:55:26;;;;;;;0.80;0.35;;;24.50;50.50;;;;;;6245774;23;20001;-82
2023/03/15 11:57:52;;;;;;;1.33;0.65;;;25.70;48.40;;;;;;6243670;23;20001;-83
2023/03/15 12:00:27;;;;;;;3.60;0.40;;;26.70;45.20;;;;;;6245329;23;20077;-80
2023/03/15 12:03:17;;;;;;;0.60;0.60;;;27.60;44.40;;;;;;6217689;23;20091;-80
2023/03/15 12:05:49;;;;;;;1.08;0.40;;;28.40;43.10;;;;;;6215940;23;20008;-79
2023/03/15 12:08:45;;;;;;;2.08;0.70;;;29.00;40.70;;;;;;6243169;23;20513;-77
2023/03/15 12:11:21;;;;;;;3.88;1.08;;;29.50;42.20;;;;;;6210363;23;20004;-81
2023/03/15 12:13:57;;;;;;;2.17;0.75;;;29.80;40.30;;;;;;6217135;23;20064;-79
2023/03/15 12:16:27;;;;;;;0.47;0.30;;;30.00;38.10;;;;;;6216761;23;20111;-76
2023/03/15 12:18:58;;;;;;;0.40;0.40;;;30.00;37.50;;;;;;6217325;23;20078;-78
2023/03/15 12:21:32;;;;;;;1.88;0.40;;;29.90;36.90;;;;;;6244135;23;20034;-78
2023/03/15 12:24:04;;;;;;;2.85;0.60;;;29.80;37.50;;;;;;6244042;23;20012;-78
2023/03/15 12:26:45;;;;;;;1.77;0.77;;;29.70;37.70;;;;;;6243961;23;20007;-79
2023/03/15 12:29:16;;;;;;;2.78;0.80;;;29.50;38.30;;;;;;6244156;23;20035;-76
2023/03/15 12:31:57;;;;;;;1.70;0.80;;;29.20;39.70;;;;;;6244536;23;20046;-77
2023/03/15 12:34:44;;;;;;;1.55;0.70;;;29.10;39.40;;;;;;6244049;23;20030;-75
2023/03/15 12:37:37;;;;;;;0.60;0.60;;;29.00;38.60;;;;;;6243854;23;20000;-79
2023/03/15 12:40:14;;;;;;;1.85;0.80;;;28.90;40.00;;;;;;6245159;23;20004;-78
2023/03/15 12:42:40;;;;;;;0.52;0.40;;;28.90;40.30;;;;;;6244884;23;20014;-77
2023/03/15 12:45:36;;;;;;;2.80;0.68;;;29.00;38.70;;;;;;6245034;23;20083;-80
2023/03/15 12:48:05;;;;;;;3.17;0.50;;;29.20;37.50;;;;;;6232923;23;20000;-79
2023/03/15 12:50:49;;;;;;;3.60;0.50;;;29.20;37.70;;;;;;6217993;23;20008;-76
2023/03/15 12:53:35;;;;;;;1.73;0.50;;;29.30;37.70;;;;;;6245451;23;20066;-76
2023/03/15 12:56:31;;;;;;;3.28;0.75;;;29.50;37.40;;;;;;6217684;23;20091;-77
2023/03/15 12:59:13;;;;;;;0.85;0.52;;;29.60;36.70;;;;;;6244626;23;20004;-77